Decoded Metar for KDDH (BENNINGTON in VT, USA) (IATA:DDH) | Meteo·Mobile Aviation Weather
aviador You're here:

KDDH Decoded Metar

BENNINGTON in VT, USA
Report Time2018-08-22 05:54:00
UTC Time2018-08-22 07:00:36
Flight Rules mvfr MVFR
Wind050° at 04 kt
W.Decomp.*RWY 13: 1.6 kt HW 3.7 kt LCW
W.Rank050° ranks 35
Current wind is below 050° avg. (4.1)
Visibility9999 m
Phenomena:Light Rain
Clouds:Overcast 021 Hf
Expected CloudBase > 800 ft AGL from Temp-Dew spread
Ceiling2,100 ft
Temp19°C (ISA +6)
Dew Point17°C (88% RH)
QNH1010 hPa
Density Alt1,818 ft
Elevation801 ft
Report Wrong Elevation
Raw Report
KDDH 220554Z AUTO 05004KT 10SM -RA OVC021 19/17 A2983 RMK AO2
RAB36 SLP095 P0000 60001 T01890167 10217 20189 58029=

Extra information for KDDH:More info

Metar Taf Metar & Taf Last 4 Metars F.Rules Stats Wind Profile Meteogram Temp Stats Airport Information Weather charts Add Link Nearby VenuesMetar ALERT Operation Metar Decoded Social comments

AIRNAV info for KDDH